Time;durP1;ratioP1;P1;durP2;ratioP2;P2;SDS_P1;SDS_P2;PMS_P1;PMS_P2;Temp;Humidity;BMP_temperature;BMP_pressure;BME280_temperature;BME280_humidity;BME280_pressure;Samples;Min_cycle;Max_cycle;Signal;HPM_P1;HPM_P2
2023/12/14 00:02:48;;;;;;;6.22;5.93;;;;;;;;;;6117806;29;20043;-92
2023/12/14 00:05:49;;;;;;;5.95;5.57;;;;;;;;;;6104314;29;20047;-90
2023/12/14 00:08:54;;;;;;;6.60;6.25;;;;;;;;;;6103604;29;20138;-90
2023/12/14 00:11:55;;;;;;;5.68;5.45;;;;;;;;;;6117066;29;20163;-91
2023/12/14 00:14:57;;;;;;;7.15;6.75;;;;;;;;;;6113491;29;20056;-90
2023/12/14 00:17:59;;;;;;;5.93;5.72;;;;;;;;;;6074553;29;20502;-90
2023/12/14 00:21:03;;;;;;;6.53;6.13;;;;;;;;;;6115239;29;20043;-89
2023/12/14 00:24:05;;;;;;;5.25;5.05;;;;;;;;;;6116837;29;20055;-89
2023/12/14 00:27:09;;;;;;;6.57;6.18;;;;;;;;;;6118869;29;20047;-90
2023/12/14 00:30:11;;;;;;;6.55;6.25;;;;;;;;;;6119008;29;20546;-90
2023/12/14 00:33:12;;;;;;;5.97;5.68;;;;;;;;;;6118960;29;20059;-90
2023/12/14 00:36:18;;;;;;;6.05;5.85;;;;;;;;;;6116628;29;20150;-90
2023/12/14 00:39:19;;;;;;;7.63;7.07;;;;;;;;;;6117697;29;20044;-90
2023/12/14 00:42:21;;;;;;;5.63;5.43;;;;;;;;;;6117659;29;20247;-90
2023/12/14 00:45:23;;;;;;;5.90;5.70;;;;;;;;;;6117114;29;20046;-90
2023/12/14 00:48:24;;;;;;;5.93;5.68;;;;;;;;;;6117517;29;20071;-90
2023/12/14 00:51:26;;;;;;;6.15;5.93;;;;;;;;;;6113284;29;20504;-90
2023/12/14 00:54:28;;;;;;;6.72;6.35;;;;;;;;;;6115835;29;20180;-91
2023/12/14 00:57:30;;;;;;;5.97;5.32;;;;;;;;;;6114284;29;20050;-91
2023/12/14 01:00:31;;;;;;;5.70;5.43;;;;;;;;;;6115146;29;20075;-91
2023/12/14 01:03:33;;;;;;;6.82;6.53;;;;;;;;;;6116563;29;20074;-90
2023/12/14 01:06:35;;;;;;;5.78;5.53;;;;;;;;;;6117905;29;20052;-90
2023/12/14 01:09:37;;;;;;;5.22;5.03;;;;;;;;;;6116175;29;20071;-91
2023/12/14 01:12:38;;;;;;;5.45;5.22;;;;;;;;;;6116323;29;20457;-91
2023/12/14 01:15:40;;;;;;;6.35;6.05;;;;;;;;;;6117342;29;20431;-91
2023/12/14 01:18:42;;;;;;;6.88;6.38;;;;;;;;;;6116755;29;20047;-91
2023/12/14 01:21:44;;;;;;;5.70;5.47;;;;;;;;;;6116096;29;20036;-91
2023/12/14 01:24:46;;;;;;;6.22;5.97;;;;;;;;;;6115770;29;20623;-91
2023/12/14 01:27:50;;;;;;;6.68;6.22;;;;;;;;;;6115331;29;20577;-91
2023/12/14 01:30:52;;;;;;;7.00;6.70;;;;;;;;;;6115615;29;20040;-91
2023/12/14 01:33:55;;;;;;;6.95;6.38;;;;;;;;;;6115435;29;20051;-91
2023/12/14 01:36:57;;;;;;;6.70;6.40;;;;;;;;;;6115109;29;20072;-91
2023/12/14 01:39:59;;;;;;;5.78;5.57;;;;;;;;;;6115600;29;20043;-91
2023/12/14 01:43:10;;;;;;;5.50;5.30;;;;;;;;;;6114506;29;20052;-91
2023/12/14 01:46:13;;;;;;;5.57;5.38;;;;;;;;;;6103278;29;20059;-91
2023/12/14 01:49:17;;;;;;;5.78;5.57;;;;;;;;;;6099162;29;20044;-91
2023/12/14 01:52:19;;;;;;;6.78;6.47;;;;;;;;;;6114564;29;20056;-91
2023/12/14 01:55:20;;;;;;;5.47;5.28;;;;;;;;;;6102085;29;20095;-91
2023/12/14 01:58:22;;;;;;;10.10;7.38;;;;;;;;;;6114926;29;20046;-91
2023/12/14 02:01:39;;;;;;;5.47;5.28;;;;;;;;;;6114140;29;20048;-91
2023/12/14 02:04:41;;;;;;;6.72;6.25;;;;;;;;;;6114720;29;20071;-91
2023/12/14 02:07:42;;;;;;;5.60;5.40;;;;;;;;;;6114682;29;20044;-90
2023/12/14 02:10:44;;;;;;;6.05;5.75;;;;;;;;;;6113248;29;20135;-91
2023/12/14 02:13:46;;;;;;;5.60;5.40;;;;;;;;;;6115471;29;20058;-90
2023/12/14 02:16:48;;;;;;;5.30;5.10;;;;;;;;;;6114463;29;20056;-90
2023/12/14 02:19:54;;;;;;;6.13;5.93;;;;;;;;;;6114961;29;20051;-91
2023/12/14 02:22:55;;;;;;;5.85;5.43;;;;;;;;;;6115166;29;20054;-91
2023/12/14 02:25:57;;;;;;;5.40;5.20;;;;;;;;;;6115583;29;20088;-90
2023/12/14 02:28:59;;;;;;;5.68;5.47;;;;;;;;;;6116168;29;20044;-91
2023/12/14 02:32:01;;;;;;;6.50;6.18;;;;;;;;;;6109255;29;20154;-91
2023/12/14 02:35:03;;;;;;;5.50;5.30;;;;;;;;;;6108635;29;20152;-91
2023/12/14 02:38:05;;;;;;;5.50;5.30;;;;;;;;;;6114187;29;20039;-91
2023/12/14 02:41:07;;;;;;;5.90;5.57;;;;;;;;;;6112173;29;20076;-90
2023/12/14 02:44:08;;;;;;;6.35;5.75;;;;;;;;;;6107347;29;20406;-91
2023/12/14 02:47:10;;;;;;;5.70;5.45;;;;;;;;;;6113143;29;20139;-91
2023/12/14 02:50:12;;;;;;;6.22;5.82;;;;;;;;;;6113362;29;20075;-91
2023/12/14 02:53:14;;;;;;;6.07;5.78;;;;;;;;;;6115501;29;20039;-91
2023/12/14 02:56:16;;;;;;;6.00;5.72;;;;;;;;;;6113773;29;20048;-90
2023/12/14 02:59:18;;;;;;;5.55;5.35;;;;;;;;;;6114136;29;20494;-91
2023/12/14 03:02:20;;;;;;;7.55;6.88;;;;;;;;;;6113527;29;20078;-91
2023/12/14 03:05:22;;;;;;;6.93;6.60;;;;;;;;;;6115345;29;20168;-90
2023/12/14 03:08:24;;;;;;;6.28;5.97;;;;;;;;;;6110518;29;20188;-91
2023/12/14 03:11:26;;;;;;;6.50;6.28;;;;;;;;;;6117389;29;20588;-91
2023/12/14 03:14:34;;;;;;;5.72;5.32;;;;;;;;;;6108349;29;20485;-91
2023/12/14 03:17:35;;;;;;;5.63;5.43;;;;;;;;;;6117738;29;20110;-91
2023/12/14 03:20:37;;;;;;;7.93;6.75;;;;;;;;;;6118173;29;20051;-91
2023/12/14 03:23:39;;;;;;;9.30;7.13;;;;;;;;;;6117477;29;20048;-91
2023/12/14 03:26:41;;;;;;;6.60;6.32;;;;;;;;;;6117620;29;20051;-91
2023/12/14 03:29:42;;;;;;;7.22;6.82;;;;;;;;;;6118375;29;20051;-91
2023/12/14 03:32:44;;;;;;;7.80;7.28;;;;;;;;;;6115574;29;20423;-91
2023/12/14 03:35:46;;;;;;;6.30;6.07;;;;;;;;;;6116787;29;20047;-91
2023/12/14 03:38:48;;;;;;;6.30;6.03;;;;;;;;;;6120298;29;20075;-92
2023/12/14 03:41:52;;;;;;;6.60;6.30;;;;;;;;;;6121701;29;20043;-92
2023/12/14 03:44:54;;;;;;;8.25;7.65;;;;;;;;;;6119321;29;20430;-92
2023/12/14 03:47:56;;;;;;;5.95;5.75;;;;;;;;;;6121661;29;20052;-92
2023/12/14 03:50:58;;;;;;;6.80;6.50;;;;;;;;;;6119945;29;20191;-92
2023/12/14 03:53:59;;;;;;;5.60;5.40;;;;;;;;;;6119848;29;20059;-91
2023/12/14 03:57:01;;;;;;;6.72;6.18;;;;;;;;;;6112736;29;20118;-92
2023/12/14 04:00:03;;;;;;;5.80;5.55;;;;;;;;;;6120845;29;20040;-92
2023/12/14 04:03:05;;;;;;;5.65;5.35;;;;;;;;;;6121187;29;20103;-92
2023/12/14 04:06:07;;;;;;;5.03;4.72;;;;;;;;;;6120392;29;20432;-92
2023/12/14 04:09:10;;;;;;;7.20;6.55;;;;;;;;;;6120390;29;20118;-92
2023/12/14 04:12:12;;;;;;;5.63;5.43;;;;;;;;;;6119170;29;20051;-92
2023/12/14 04:15:13;;;;;;;6.72;6.43;;;;;;;;;;6120296;29;20052;-92
2023/12/14 04:18:15;;;;;;;6.53;6.13;;;;;;;;;;6117817;29;20048;-93
2023/12/14 04:21:17;;;;;;;6.25;5.93;;;;;;;;;;6117848;29;20594;-92
2023/12/14 04:24:19;;;;;;;5.78;5.47;;;;;;;;;;6119411;29;20047;-92
2023/12/14 04:27:24;;;;;;;5.25;4.93;;;;;;;;;;6120169;29;20070;-93
2023/12/14 04:30:25;;;;;;;5.78;5.47;;;;;;;;;;6119684;29;20071;-93
2023/12/14 04:33:27;;;;;;;6.32;6.03;;;;;;;;;;6118801;29;20123;-92
2023/12/14 04:36:29;;;;;;;5.82;5.53;;;;;;;;;;6115601;29;20520;-92
2023/12/14 04:39:31;;;;;;;4.95;4.78;;;;;;;;;;6103762;29;20055;-92
2023/12/14 04:42:32;;;;;;;5.55;5.35;;;;;;;;;;6118824;29;20206;-92
2023/12/14 04:45:35;;;;;;;5.82;5.63;;;;;;;;;;6119972;29;20051;-93
2023/12/14 04:48:36;;;;;;;4.93;4.72;;;;;;;;;;6119711;29;20047;-93
2023/12/14 04:51:38;;;;;;;7.75;6.88;;;;;;;;;;6117711;29;20071;-92
2023/12/14 04:54:42;;;;;;;5.93;5.72;;;;;;;;;;6119700;29;20047;-93
2023/12/14 04:57:44;;;;;;;5.38;5.18;;;;;;;;;;6118519;29;20052;-92
2023/12/14 05:00:46;;;;;;;6.68;6.38;;;;;;;;;;6119073;29;20043;-93
2023/12/14 05:03:47;;;;;;;5.10;4.90;;;;;;;;;;6118888;29;20403;-93
2023/12/14 05:06:49;;;;;;;6.78;6.47;;;;;;;;;;6119071;29;20042;-93
2023/12/14 05:09:52;;;;;;;5.50;5.07;;;;;;;;;;6107830;29;20074;-93
2023/12/14 05:12:54;;;;;;;6.28;5.97;;;;;;;;;;6119450;29;20114;-93
2023/12/14 05:15:57;;;;;;;6.90;6.60;;;;;;;;;;6117487;29;20051;-93
2023/12/14 05:18:59;;;;;;;7.15;6.85;;;;;;;;;;6119428;29;20047;-93
2023/12/14 05:22:01;;;;;;;5.75;5.45;;;;;;;;;;6117847;29;20062;-92
2023/12/14 05:25:04;;;;;;;6.22;5.88;;;;;;;;;;6117051;29;20422;-93
2023/12/14 05:28:06;;;;;;;5.82;5.63;;;;;;;;;;6119626;29;20055;-92
2023/12/14 05:31:08;;;;;;;6.90;6.45;;;;;;;;;;6118475;29;20142;-93
2023/12/14 05:34:10;;;;;;;6.18;5.90;;;;;;;;;;6118558;29;20044;-92
2023/12/14 05:37:12;;;;;;;6.07;5.78;;;;;;;;;;6118558;29;20047;-93
2023/12/14 05:40:14;;;;;;;7.18;6.60;;;;;;;;;;6120028;29;20051;-93
2023/12/14 05:43:16;;;;;;;6.70;6.30;;;;;;;;;;6119981;29;20055;-93
2023/12/14 05:46:24;;;;;;;5.63;5.40;;;;;;;;;;6092604;29;20623;-93
2023/12/14 05:49:26;;;;;;;7.00;6.63;;;;;;;;;;6116992;29;20435;-93
2023/12/14 05:52:27;;;;;;;6.25;5.95;;;;;;;;;;6117885;29;20089;-93
2023/12/14 05:55:29;;;;;;;6.15;5.95;;;;;;;;;;6119275;29;20406;-93
2023/12/14 05:58:31;;;;;;;6.32;6.03;;;;;;;;;;6119146;29;20510;-93
2023/12/14 06:01:33;;;;;;;6.82;6.38;;;;;;;;;;6117771;29;20053;-93
2023/12/14 06:04:35;;;;;;;6.47;5.97;;;;;;;;;;6117123;29;20035;-94
2023/12/14 06:07:37;;;;;;;6.85;6.55;;;;;;;;;;6117872;29;20079;-95
2023/12/14 06:10:40;;;;;;;5.78;5.43;;;;;;;;;;6118149;29;20049;-94
2023/12/14 06:13:43;;;;;;;5.75;5.45;;;;;;;;;;6118107;29;20052;-93
2023/12/14 06:16:45;;;;;;;6.72;6.32;;;;;;;;;;6118207;29;20031;-94
2023/12/14 06:19:47;;;;;;;5.15;4.95;;;;;;;;;;6117111;29;20506;-94
2023/12/14 06:22:55;;;;;;;7.05;6.45;;;;;;;;;;6118190;29;20051;-94
2023/12/14 06:25:58;;;;;;;7.35;6.75;;;;;;;;;;6100767;29;20068;-93
2023/12/14 06:29:00;;;;;;;7.32;7.03;;;;;;;;;;6100862;29;20058;-93
2023/12/14 06:32:02;;;;;;;5.75;5.45;;;;;;;;;;6101464;29;20048;-94
2023/12/14 06:35:05;;;;;;;6.80;6.50;;;;;;;;;;6117089;29;20160;-94
2023/12/14 06:38:07;;;;;;;5.95;5.75;;;;;;;;;;6117927;29;20322;-94
2023/12/14 06:41:17;;;;;;;5.07;4.88;;;;;;;;;;6116481;29;20234;-94
2023/12/14 06:44:19;;;;;;;6.68;6.25;;;;;;;;;;6121081;29;20051;-94
2023/12/14 06:47:21;;;;;;;7.38;6.78;;;;;;;;;;6121403;29;20051;-94
2023/12/14 06:50:23;;;;;;;6.78;6.47;;;;;;;;;;6118491;29;20036;-94
2023/12/14 06:53:25;;;;;;;6.72;6.43;;;;;;;;;;6119611;29;20062;-94
2023/12/14 06:56:27;;;;;;;5.28;5.07;;;;;;;;;;6121090;29;20036;-94
2023/12/14 06:59:29;;;;;;;6.95;6.65;;;;;;;;;;6122737;29;20075;-95
2023/12/14 07:02:31;;;;;;;5.70;5.50;;;;;;;;;;6123005;29;20410;-95
2023/12/14 07:05:33;;;;;;;6.32;5.95;;;;;;;;;;6120376;29;20039;-95
2023/12/14 07:08:36;;;;;;;6.93;6.38;;;;;;;;;;6120654;29;20067;-94
2023/12/14 07:11:39;;;;;;;5.47;5.28;;;;;;;;;;6120995;29;20622;-94
2023/12/14 07:14:41;;;;;;;7.10;6.68;;;;;;;;;;6105104;29;20106;-95
2023/12/14 07:17:44;;;;;;;5.85;5.65;;;;;;;;;;6105471;29;20138;-95
2023/12/14 07:20:46;;;;;;;7.03;4.70;;;;;;;;;;6122543;29;20036;-95
2023/12/14 07:23:51;;;;;;;7.20;6.80;;;;;;;;;;6120808;29;20521;-94
2023/12/14 07:26:53;;;;;;;6.05;5.75;;;;;;;;;;6122847;29;20122;-95
2023/12/14 07:29:55;;;;;;;7.40;6.80;;;;;;;;;;6122156;29;20383;-95
2023/12/14 07:32:57;;;;;;;6.22;5.93;;;;;;;;;;6120236;29;20519;-95
2023/12/14 07:35:59;;;;;;;6.18;5.88;;;;;;;;;;6117230;29;20522;-95
2023/12/14 07:39:01;;;;;;;7.03;6.60;;;;;;;;;;6100133;29;20401;-95
2023/12/14 07:42:03;;;;;;;6.30;6.00;;;;;;;;;;6121237;29;20047;-95
2023/12/14 07:45:06;;;;;;;6.53;6.22;;;;;;;;;;6118518;29;20043;-95
2023/12/14 07:48:08;;;;;;;5.60;5.40;;;;;;;;;;6117720;29;20425;-96
2023/12/14 07:51:10;;;;;;;6.05;5.85;;;;;;;;;;6119675;29;20043;-96
2023/12/14 07:54:12;;;;;;;5.55;5.28;;;;;;;;;;6118652;29;20455;-96
2023/12/14 07:57:15;;;;;;;5.45;5.22;;;;;;;;;;6113636;29;20051;-96
2023/12/14 08:00:18;;;;;;;5.97;5.68;;;;;;;;;;6094523;29;20440;-95
2023/12/14 08:03:20;;;;;;;5.85;5.63;;;;;;;;;;6119264;29;20051;-93
2023/12/14 08:06:22;;;;;;;5.25;5.05;;;;;;;;;;6120059;29;20044;-92
2023/12/14 08:09:24;;;;;;;5.45;5.25;;;;;;;;;;6118902;29;20047;-92
2023/12/14 08:12:26;;;;;;;5.97;5.78;;;;;;;;;;6120022;29;20526;-93
2023/12/14 08:15:28;;;;;;;6.10;5.80;;;;;;;;;;6098150;29;20054;-92
2023/12/14 08:18:30;;;;;;;4.80;4.60;;;;;;;;;;6120236;29;20052;-92
2023/12/14 08:21:32;;;;;;;5.75;5.55;;;;;;;;;;6119073;29;20027;-93
2023/12/14 08:24:34;;;;;;;5.95;5.65;;;;;;;;;;6118595;29;20048;-93
2023/12/14 08:27:35;;;;;;;5.40;5.10;;;;;;;;;;6121002;29;20039;-94
2023/12/14 08:30:38;;;;;;;6.00;5.32;;;;;;;;;;6120854;29;20455;-93
2023/12/14 08:33:41;;;;;;;5.88;5.68;;;;;;;;;;6120426;29;20055;-93
2023/12/14 08:36:44;;;;;;;5.53;5.32;;;;;;;;;;6118426;29;20048;-93
2023/12/14 08:39:46;;;;;;;5.70;5.40;;;;;;;;;;6119953;29;20529;-92
2023/12/14 08:42:48;;;;;;;5.65;5.45;;;;;;;;;;6118226;29;20059;-92
2023/12/14 08:45:50;;;;;;;5.80;5.40;;;;;;;;;;6119944;29;20044;-92
2023/12/14 08:48:54;;;;;;;5.50;5.30;;;;;;;;;;6116742;29;20047;-92
2023/12/14 08:51:56;;;;;;;5.93;5.63;;;;;;;;;;6119953;29;20200;-91
2023/12/14 08:54:58;;;;;;;5.70;5.50;;;;;;;;;;6119500;29;20048;-92
2023/12/14 08:58:00;;;;;;;6.38;6.07;;;;;;;;;;6118707;29;20506;-92
2023/12/14 09:01:03;;;;;;;6.35;6.07;;;;;;;;;;6113345;29;20183;-92
2023/12/14 09:04:05;;;;;;;5.93;5.72;;;;;;;;;;6117556;29;20070;-91
2023/12/14 09:07:07;;;;;;;5.53;5.22;;;;;;;;;;6120880;29;20040;-91
2023/12/14 09:10:09;;;;;;;7.03;6.72;;;;;;;;;;6118518;29;20043;-92
2023/12/14 09:13:11;;;;;;;5.03;4.88;;;;;;;;;;6119554;29;20418;-91
2023/12/14 09:16:12;;;;;;;5.40;5.20;;;;;;;;;;6108174;29;20056;-92
2023/12/14 09:19:14;;;;;;;6.93;6.63;;;;;;;;;;6109823;29;20115;-92
2023/12/14 09:22:17;;;;;;;4.55;4.45;;;;;;;;;;6119167;29;20044;-91
2023/12/14 09:25:19;;;;;;;5.55;5.25;;;;;;;;;;6115109;29;20044;-92
2023/12/14 09:28:21;;;;;;;5.40;5.20;;;;;;;;;;6119111;29;20537;-92
2023/12/14 09:31:22;;;;;;;5.63;5.43;;;;;;;;;;6114060;29;20051;-92
2023/12/14 09:34:24;;;;;;;5.20;5.00;;;;;;;;;;6114415;29;20062;-92
2023/12/14 09:37:26;;;;;;;6.50;5.93;;;;;;;;;;6117920;28;20067;-92
2023/12/14 09:40:28;;;;;;;5.13;4.97;;;;;;;;;;6117993;29;20124;-91
2023/12/14 09:43:31;;;;;;;4.95;4.75;;;;;;;;;;6119136;29;20044;-92
2023/12/14 09:46:41;;;;;;;6.40;6.05;;;;;;;;;;6117573;29;20073;-92
2023/12/14 09:49:45;;;;;;;5.85;5.65;;;;;;;;;;6118779;29;20051;-93
2023/12/14 09:52:48;;;;;;;6.70;6.40;;;;;;;;;;6116331;29;20533;-92
2023/12/14 09:55:50;;;;;;;4.53;4.38;;;;;;;;;;6118560;29;20510;-92
2023/12/14 09:58:53;;;;;;;5.40;5.20;;;;;;;;;;6112814;29;20395;-93
2023/12/14 10:02:11;;;;;;;5.70;5.40;;;;;;;;;;6119045;29;20047;-93
2023/12/14 10:05:13;;;;;;;5.88;5.57;;;;;;;;;;6112472;29;21219;-93
2023/12/14 10:08:16;;;;;;;5.40;5.20;;;;;;;;;;6114842;29;20040;-93
2023/12/14 10:11:18;;;;;;;6.30;5.97;;;;;;;;;;6098849;29;20082;-93
2023/12/14 10:14:21;;;;;;;5.53;5.32;;;;;;;;;;6117500;29;20048;-93
2023/12/14 10:17:24;;;;;;;4.72;4.53;;;;;;;;;;6118724;29;20043;-92
2023/12/14 10:20:26;;;;;;;4.82;4.63;;;;;;;;;;6109505;29;20035;-92
2023/12/14 10:23:29;;;;;;;5.10;4.90;;;;;;;;;;6116025;29;20410;-93
2023/12/14 10:26:31;;;;;;;5.75;5.20;;;;;;;;;;6115638;29;20046;-92
2023/12/14 10:29:34;;;;;;;5.78;5.47;;;;;;;;;;6117508;29;20054;-93
2023/12/14 10:32:37;;;;;;;4.82;4.63;;;;;;;;;;6099260;29;20454;-93
2023/12/14 10:35:41;;;;;;;6.10;5.80;;;;;;;;;;6093705;29;20131;-93
2023/12/14 10:38:44;;;;;;;5.82;5.63;;;;;;;;;;6107268;29;20043;-92
2023/12/14 10:41:48;;;;;;;5.32;5.13;;;;;;;;;;6117500;29;20039;-94
2023/12/14 10:45:00;;;;;;;5.45;5.25;;;;;;;;;;6116705;29;20127;-93
2023/12/14 10:48:20;;;;;;;5.15;4.95;;;;;;;;;;6116937;29;20059;-93
2023/12/14 10:51:24;;;;;;;6.43;6.13;;;;;;;;;;6116433;29;20040;-93
2023/12/14 10:54:26;;;;;;;5.85;5.63;;;;;;;;;;6116927;29;20172;-93
2023/12/14 10:57:28;;;;;;;5.22;5.03;;;;;;;;;;6114766;29;20709;-94
2023/12/14 11:00:33;;;;;;;5.70;5.50;;;;;;;;;;6102139;29;20052;-93
2023/12/14 11:03:35;;;;;;;5.25;5.05;;;;;;;;;;6114615;29;20300;-93
2023/12/14 11:06:38;;;;;;;6.15;5.88;;;;;;;;;;6116595;29;20040;-93
2023/12/14 11:09:44;;;;;;;6.95;6.57;;;;;;;;;;6112175;29;20107;-93
2023/12/14 11:13:14;;;;;;;5.70;5.50;;;;;;;;;;6109974;29;20059;-94
2023/12/14 11:16:16;;;;;;;;;;;;;;;;;;6043743;29;20049;-92
2023/12/14 11:19:28;;;;;;;7.25;6.78;;;;;;;;;;6075233;29;19927;-93
2023/12/14 11:22:45;;;;;;;6.15;5.85;;;;;;;;;;6080181;29;20045;-95
2023/12/14 11:26:28;;;;;;;6.43;6.07;;;;;;;;;;6083691;29;20095;-93
2023/12/14 11:30:02;;;;;;;6.30;6.10;;;;;;;;;;6054178;29;20061;-93
2023/12/14 11:34:07;;;;;;;6.00;5.80;;;;;;;;;;6052970;29;20060;-92
2023/12/14 11:37:46;;;;;;;4.90;4.78;;;;;;;;;;6038251;29;20090;-93
2023/12/14 11:41:33;;;;;;;7.53;7.03;;;;;;;;;;6049502;29;20105;-93
2023/12/14 11:45:14;;;;;;;7.38;7.03;;;;;;;;;;6029067;29;20115;-93
2023/12/14 11:49:03;;;;;;;5.53;5.32;;;;;;;;;;6029643;29;20103;-93
2023/12/14 11:52:32;;;;;;;6.43;6.10;;;;;;;;;;6031764;29;20049;-93
2023/12/14 11:56:29;;;;;;;6.03;5.72;;;;;;;;;;6044379;29;20053;-94
2023/12/14 12:00:01;;;;;;;;;;;;;;;;;;;;;
2023/12/14 12:03:43;;;;;;;6.30;6.00;;;;;;;;;;6097451;29;20050;-93
2023/12/14 12:07:05;;;;;;;6.18;5.88;;;;;;;;;;6049399;29;20052;-93
2023/12/14 12:10:31;;;;;;;;;;;;;;;;;;;;;
2023/12/14 12:14:25;;;;;;;5.72;5.43;;;;;;;;;;6045428;29;19971;-93
2023/12/14 12:18:25;;;;;;;6.40;6.00;;;;;;;;;;6046155;29;20056;-93
2023/12/14 12:22:10;;;;;;;5.45;5.25;;;;;;;;;;6042979;29;20148;-93
2023/12/14 12:25:17;;;;;;;6.60;6.30;;;;;;;;;;6054621;29;20428;-93
2023/12/14 12:28:21;;;;;;;6.55;6.10;;;;;;;;;;6048795;29;20152;-93
2023/12/14 12:31:29;;;;;;;6.40;6.10;;;;;;;;;;6045687;29;20184;-93
2023/12/14 12:34:33;;;;;;;5.90;5.70;;;;;;;;;;6044040;29;20493;-93
2023/12/14 12:37:46;;;;;;;5.03;4.82;;;;;;;;;;6046283;29;20592;-93
2023/12/14 12:40:48;;;;;;;5.40;5.20;;;;;;;;;;6045576;29;20218;-94
2023/12/14 12:43:54;;;;;;;5.85;5.60;;;;;;;;;;6076201;29;20047;-94
2023/12/14 12:46:58;;;;;;;6.50;6.20;;;;;;;;;;6117020;29;20079;-93
2023/12/14 12:50:12;;;;;;;4.80;4.60;;;;;;;;;;6114702;29;20047;-94
2023/12/14 12:53:46;;;;;;;6.25;6.03;;;;;;;;;;6111601;29;20051;-94
2023/12/14 12:56:53;;;;;;;5.97;5.68;;;;;;;;;;6101923;29;20078;-94
2023/12/14 13:00:11;;;;;;;6.22;5.93;;;;;;;;;;6116328;29;20052;-94
2023/12/14 13:03:17;;;;;;;5.82;5.63;;;;;;;;;;6098985;29;20051;-94
2023/12/14 13:06:31;;;;;;;6.90;6.60;;;;;;;;;;6091387;29;20051;-96
2023/12/14 13:09:37;;;;;;;6.43;5.97;;;;;;;;;;6115278;29;20130;-94
2023/12/14 13:16:53;;;;;;;6.85;6.55;;;;;;;;;;5689945;26;20146;-95
2023/12/14 13:20:10;;;;;;;5.90;5.70;;;;;;;;;;6117538;28;20139;-94
2023/12/14 13:23:17;;;;;;;5.75;5.55;;;;;;;;;;6085669;29;20122;-95
2023/12/14 13:26:30;;;;;;;6.22;5.88;;;;;;;;;;6076288;29;20585;-96
2023/12/14 13:29:52;;;;;;;5.22;5.03;;;;;;;;;;6092569;29;20534;-95
2023/12/14 13:33:11;;;;;;;;;;;;;;;;;;6091564;29;20407;-96
2023/12/14 13:37:00;;;;;;;;;;;;;;;;;;;;;
2023/12/14 13:40:20;;;;;;;6.28;5.97;;;;;;;;;;6084046;29;20052;-95
2023/12/14 13:51:21;;;;;;;5.97;5.68;;;;;;;;;;4403819;26;20048;-96
2023/12/14 13:54:42;;;;;;;6.47;6.28;;;;;;;;;;6090496;29;20044;-96
2023/12/14 13:58:00;;;;;;;6.00;5.80;;;;;;;;;;6092996;29;20052;-96
2023/12/14 14:01:24;;;;;;;8.38;7.43;;;;;;;;;;6086642;29;20422;-96
2023/12/14 14:08:27;;;;;;;6.32;6.03;;;;;;;;;;6116680;29;20067;-96
2023/12/14 14:12:06;;;;;;;;;;;;;;;;;;;;;
2023/12/14 14:15:17;;;;;;;;;;;;;;;;;;6077529;29;20390;-96
2023/12/14 14:23:17;;;;;;;;;;;;;;;;;;6349560;23;20533;-96
2023/12/14 14:26:58;;;;;;;;;;;;;;;;;;;;;
2023/12/14 14:30:32;;;;;;;6.18;5.82;;;;;;;;;;6090506;29;20502;-96
2023/12/14 14:34:28;;;;;;;;;;;;;;;;;;;;;
2023/12/14 14:38:12;;;;;;;5.10;4.90;;;;;;;;;;6086528;29;20703;-96
2023/12/14 14:42:04;;;;;;;6.97;6.68;;;;;;;;;;6090835;29;20055;-96
2023/12/14 14:50:09;;;;;;;6.47;6.15;;;;;;;;;;6093153;29;20044;-96
2023/12/14 14:54:17;;;;;;;5.75;5.30;;;;;;;;;;6089457;29;20087;-96
2023/12/14 15:06:14;;;;;;;8.13;7.82;;;;;;;;;;6072361;29;20051;-96
2023/12/14 15:10:16;;;;;;;6.40;6.10;;;;;;;;;;6064120;29;20048;-96
2023/12/14 15:18:22;;;;;;;6.63;6.32;;;;;;;;;;6031257;29;20045;-96
2023/12/14 15:21:55;;;;;;;7.22;6.93;;;;;;;;;;6026307;29;20150;-96
2023/12/14 15:31:18;;;;;;;7.47;7.18;;;;;;;;;;6690997;23;20074;-96
2023/12/14 15:35:02;;;;;;;;;;;;;;;;;;;;;
2023/12/14 15:39:08;;;;;;;7.53;6.80;;;;;;;;;;6119292;29;20047;-96
2023/12/14 15:47:22;;;;;;;7.13;6.85;;;;;;;;;;6559232;23;20048;-96
2023/12/14 15:51:57;;;;;;;7.78;7.28;;;;;;;;;;6012181;29;20057;-95
2023/12/14 15:59:46;;;;;;;6.95;6.65;;;;;;;;;;5974697;29;20057;-95
2023/12/14 16:03:28;;;;;;;7.57;7.03;;;;;;;;;;5967153;29;20059;-95
2023/12/14 16:06:55;;;;;;;6.85;6.32;;;;;;;;;;6338699;23;20043;-96
2023/12/14 16:10:09;;;;;;;6.18;5.93;;;;;;;;;;6149893;28;20075;-96
2023/12/14 16:13:14;;;;;;;6.72;6.35;;;;;;;;;;6163148;28;20567;-96
2023/12/14 16:16:19;;;;;;;6.03;5.72;;;;;;;;;;6159256;28;20050;-96
2023/12/14 16:19:22;;;;;;;5.65;5.43;;;;;;;;;;6174177;28;20046;-96
2023/12/14 16:22:26;;;;;;;7.32;6.55;;;;;;;;;;6155831;28;20047;-96
2023/12/14 16:25:37;;;;;;;7.20;6.63;;;;;;;;;;6158519;28;20051;-96
2023/12/14 16:28:56;;;;;;;5.90;5.60;;;;;;;;;;6138969;28;20044;-96
2023/12/14 16:32:00;;;;;;;5.63;5.38;;;;;;;;;;6150455;29;20071;-96
2023/12/14 16:35:03;;;;;;;7.10;6.55;;;;;;;;;;6153654;28;20047;-96
2023/12/14 16:38:17;;;;;;;6.55;5.90;;;;;;;;;;6156303;28;20044;-96
2023/12/14 16:41:22;;;;;;;5.50;5.30;;;;;;;;;;6149530;28;20664;-96
2023/12/14 16:44:37;;;;;;;5.00;4.80;;;;;;;;;;6151110;29;20050;-96
2023/12/14 16:47:49;;;;;;;5.85;5.55;;;;;;;;;;6167964;28;20119;-96
2023/12/14 16:50:59;;;;;;;5.90;5.60;;;;;;;;;;6164897;28;20036;-96
2023/12/14 16:54:04;;;;;;;5.30;5.10;;;;;;;;;;6163640;28;20079;-96
2023/12/14 16:57:07;;;;;;;5.72;5.28;;;;;;;;;;6141460;28;20065;-96
2023/12/14 17:00:12;;;;;;;6.88;6.47;;;;;;;;;;6173590;28;20862;-96
2023/12/14 17:03:25;;;;;;;7.28;6.78;;;;;;;;;;6169128;28;20043;-96
2023/12/14 17:06:29;;;;;;;6.35;6.05;;;;;;;;;;6151853;28;20050;-96
2023/12/14 17:09:35;;;;;;;6.15;5.47;;;;;;;;;;6164156;28;20043;-96
2023/12/14 17:12:42;;;;;;;6.25;5.97;;;;;;;;;;6140731;28;20051;-96
2023/12/14 17:15:48;;;;;;;6.88;6.38;;;;;;;;;;6150876;28;20059;-96
2023/12/14 17:18:59;;;;;;;5.72;5.47;;;;;;;;;;6166877;28;20055;-96
2023/12/14 17:22:18;;;;;;;5.40;5.20;;;;;;;;;;6156277;28;20047;-96
2023/12/14 17:25:40;;;;;;;5.95;5.70;;;;;;;;;;6155145;28;20135;-96
2023/12/14 17:28:50;;;;;;;5.07;4.88;;;;;;;;;;6133593;28;20044;-96
2023/12/14 17:31:56;;;;;;;6.68;6.38;;;;;;;;;;6143028;28;20540;-96
2023/12/14 17:34:59;;;;;;;6.93;6.47;;;;;;;;;;6143351;28;20083;-96
2023/12/14 17:38:04;;;;;;;7.20;6.53;;;;;;;;;;6165230;28;20051;-96
2023/12/14 17:41:25;;;;;;;7.45;7.05;;;;;;;;;;6138735;28;20505;-96
2023/12/14 17:44:34;;;;;;;5.68;5.40;;;;;;;;;;6151159;28;20043;-96
2023/12/14 17:48:13;;;;;;;7.68;7.22;;;;;;;;;;6078208;29;20138;-96
2023/12/14 17:51:28;;;;;;;8.02;7.47;;;;;;;;;;6066946;29;20462;-96
2023/12/14 17:54:49;;;;;;;8.50;7.88;;;;;;;;;;6076242;28;20059;-96
2023/12/14 17:58:00;;;;;;;6.82;6.53;;;;;;;;;;6169519;28;20137;-96
2023/12/14 18:01:12;;;;;;;6.78;6.20;;;;;;;;;;6158412;28;20051;-96
2023/12/14 18:04:29;;;;;;;5.55;5.35;;;;;;;;;;6171632;28;20588;-96
2023/12/14 18:07:52;;;;;;;6.65;6.25;;;;;;;;;;6147409;28;20497;-96
2023/12/14 18:11:06;;;;;;;6.15;5.85;;;;;;;;;;6137876;29;20047;-96
2023/12/14 18:14:15;;;;;;;4.88;4.70;;;;;;;;;;6161829;28;20058;-96
2023/12/14 18:17:34;;;;;;;8.10;7.60;;;;;;;;;;6150580;28;20055;-96
2023/12/14 18:20:42;;;;;;;5.72;5.32;;;;;;;;;;6155355;28;20061;-96
2023/12/14 18:23:58;;;;;;;6.50;5.90;;;;;;;;;;6172494;28;20055;-96
2023/12/14 18:27:33;;;;;;;5.80;5.53;;;;;;;;;;6157483;28;20048;-96
2023/12/14 18:30:44;;;;;;;7.25;6.72;;;;;;;;;;6144186;28;20174;-96
2023/12/14 18:33:56;;;;;;;5.40;5.18;;;;;;;;;;6157419;28;20074;-96
2023/12/14 18:37:05;;;;;;;7.07;6.67;;;;;;;;;;6132575;28;20536;-96
2023/12/14 18:40:08;;;;;;;7.10;6.47;;;;;;;;;;6169086;28;20801;-96
2023/12/14 18:43:12;;;;;;;7.50;7.00;;;;;;;;;;6158735;28;20140;-96
2023/12/14 18:46:14;;;;;;;5.65;5.45;;;;;;;;;;6162328;28;20062;-96
2023/12/14 18:49:19;;;;;;;7.35;6.85;;;;;;;;;;6154787;28;20113;-96
2023/12/14 18:52:22;;;;;;;7.38;6.97;;;;;;;;;;6154210;28;20465;-96
2023/12/14 18:55:28;;;;;;;8.07;7.45;;;;;;;;;;6155197;28;20114;-96
2023/12/14 18:58:31;;;;;;;7.85;7.35;;;;;;;;;;6150308;28;20589;-96
2023/12/14 19:01:36;;;;;;;8.10;7.60;;;;;;;;;;6163139;28;20103;-96
2023/12/14 19:04:39;;;;;;;8.43;7.93;;;;;;;;;;6151456;28;20055;-96
2023/12/14 19:07:45;;;;;;;7.50;6.30;;;;;;;;;;6132665;28;20055;-96
2023/12/14 19:10:53;;;;;;;7.32;6.82;;;;;;;;;;6160148;28;20137;-96
2023/12/14 19:14:01;;;;;;;8.73;7.95;;;;;;;;;;6157256;28;20637;-96
2023/12/14 19:17:16;;;;;;;11.48;7.32;;;;;;;;;;6161698;28;20071;-96
2023/12/14 19:20:19;;;;;;;9.55;8.73;;;;;;;;;;6164298;28;20487;-96
2023/12/14 19:23:24;;;;;;;9.93;9.15;;;;;;;;;;6167779;28;20049;-96
2023/12/14 19:26:27;;;;;;;7.43;6.90;;;;;;;;;;6139148;29;20043;-96
2023/12/14 19:29:36;;;;;;;8.63;8.13;;;;;;;;;;6151289;28;20087;-96
2023/12/14 19:32:39;;;;;;;9.82;9.00;;;;;;;;;;6150103;28;20062;-96
2023/12/14 19:35:44;;;;;;;9.15;8.25;;;;;;;;;;6140851;28;20525;-96
2023/12/14 19:38:53;;;;;;;7.75;7.28;;;;;;;;;;6160357;28;20102;-96
2023/12/14 19:41:58;;;;;;;8.13;7.65;;;;;;;;;;6166899;28;20055;-96
2023/12/14 19:45:06;;;;;;;6.63;6.22;;;;;;;;;;6173165;28;20580;-96
2023/12/14 19:48:21;;;;;;;9.05;8.32;;;;;;;;;;6167905;28;20050;-96
2023/12/14 19:51:30;;;;;;;8.73;8.23;;;;;;;;;;6132580;28;20457;-96
2023/12/14 19:54:35;;;;;;;8.20;7.50;;;;;;;;;;6147348;28;20576;-96
2023/12/14 19:57:43;;;;;;;8.48;7.95;;;;;;;;;;6144598;29;20306;-96